sensor_id;sensor_type;location;lat;lon;timestamp;temperature;humidity
20803;DHT22;10562;-33.856;151.182;2022-09-12T00:01:06;17.30;99.90
20803;DHT22;10562;-33.856;151.182;2022-09-12T00:03:39;17.50;99.90
20803;DHT22;10562;-33.856;151.182;2022-09-12T00:06:12;17.00;99.90
20803;DHT22;10562;-33.856;151.182;2022-09-12T00:08:44;17.20;99.90
20803;DHT22;10562;-33.856;151.182;2022-09-12T00:11:15;17.20;99.90
20803;DHT22;10562;-33.856;151.182;2022-09-12T00:13:46;17.40;99.90
20803;DHT22;10562;-33.856;151.182;2022-09-12T00:16:19;17.30;99.90
20803;DHT22;10562;-33.856;151.182;2022-09-12T00:18:52;17.70;99.90
20803;DHT22;10562;-33.856;151.182;2022-09-12T00:21:23;18.10;99.90
20803;DHT22;10562;-33.856;151.182;2022-09-12T00:23:54;18.10;99.90
20803;DHT22;10562;-33.856;151.182;2022-09-12T00:26:25;18.40;99.90
20803;DHT22;10562;-33.856;151.182;2022-09-12T00:28:55;18.70;99.90
20803;DHT22;10562;-33.856;151.182;2022-09-12T00:31:27;18.80;99.90
20803;DHT22;10562;-33.856;151.182;2022-09-12T00:34:00;18.30;99.90
20803;DHT22;10562;-33.856;151.182;2022-09-12T00:36:31;18.30;99.90
20803;DHT22;10562;-33.856;151.182;2022-09-12T00:39:03;18.30;99.90
20803;DHT22;10562;-33.856;151.182;2022-09-12T00:41:35;18.40;99.90
20803;DHT22;10562;-33.856;151.182;2022-09-12T00:47:13;18.60;99.90
20803;DHT22;10562;-33.856;151.182;2022-09-12T00:49:51;19.00;99.90
20803;DHT22;10562;-33.856;151.182;2022-09-12T00:52:26;19.10;99.90
20803;DHT22;10562;-33.856;151.182;2022-09-12T00:55:05;19.40;99.90
20803;DHT22;10562;-33.856;151.182;2022-09-12T00:57:40;19.40;99.90
20803;DHT22;10562;-33.856;151.182;2022-09-12T01:00:15;19.10;99.90
20803;DHT22;10562;-33.856;151.182;2022-09-12T01:02:50;19.40;99.90
20803;DHT22;10562;-33.856;151.182;2022-09-12T01:05:25;19.50;99.90
20803;DHT22;10562;-33.856;151.182;2022-09-12T01:07:58;19.80;99.90
20803;DHT22;10562;-33.856;151.182;2022-09-12T01:10:32;20.20;99.90
20803;DHT22;10562;-33.856;151.182;2022-09-12T01:13:05;20.50;99.90
20803;DHT22;10562;-33.856;151.182;2022-09-12T01:15:38;20.60;99.90
20803;DHT22;10562;-33.856;151.182;2022-09-12T01:18:15;20.30;99.90
20803;DHT22;10562;-33.856;151.182;2022-09-12T01:20:59;20.30;99.90
20803;DHT22;10562;-33.856;151.182;2022-09-12T01:27:04;19.60;99.90
20803;DHT22;10562;-33.856;151.182;2022-09-12T01:36:02;19.40;99.90
20803;DHT22;10562;-33.856;151.182;2022-09-12T01:38:38;19.70;99.90
20803;DHT22;10562;-33.856;151.182;2022-09-12T01:41:17;19.70;99.90
20803;DHT22;10562;-33.856;151.182;2022-09-12T01:43:54;19.90;99.90
20803;DHT22;10562;-33.856;151.182;2022-09-12T01:46:31;20.20;99.90
20803;DHT22;10562;-33.856;151.182;2022-09-12T01:49:14;20.40;99.90
20803;DHT22;10562;-33.856;151.182;2022-09-12T01:51:54;20.40;99.90
20803;DHT22;10562;-33.856;151.182;2022-09-12T01:54:30;20.70;99.90
20803;DHT22;10562;-33.856;151.182;2022-09-12T01:57:09;21.10;99.90
20803;DHT22;10562;-33.856;151.182;2022-09-12T01:59:44;21.20;99.90
20803;DHT22;10562;-33.856;151.182;2022-09-12T02:02:18;21.10;99.90
20803;DHT22;10562;-33.856;151.182;2022-09-12T02:04:56;21.10;99.90
20803;DHT22;10562;-33.856;151.182;2022-09-12T02:07:30;21.50;99.90
20803;DHT22;10562;-33.856;151.182;2022-09-12T02:10:07;21.50;99.90
20803;DHT22;10562;-33.856;151.182;2022-09-12T02:12:41;21.50;99.90
20803;DHT22;10562;-33.856;151.182;2022-09-12T02:15:16;21.60;99.90
20803;DHT22;10562;-33.856;151.182;2022-09-12T02:17:49;21.70;99.90
20803;DHT22;10562;-33.856;151.182;2022-09-12T02:20:24;22.00;99.90
20803;DHT22;10562;-33.856;151.182;2022-09-12T02:22:56;21.60;99.90
20803;DHT22;10562;-33.856;151.182;2022-09-12T02:25:27;21.60;99.90
20803;DHT22;10562;-33.856;151.182;2022-09-12T02:30:47;21.90;99.90
20803;DHT22;10562;-33.856;151.182;2022-09-12T02:33:25;21.90;99.90
20803;DHT22;10562;-33.856;151.182;2022-09-12T02:36:02;22.10;99.90
20803;DHT22;10562;-33.856;151.182;2022-09-12T02:38:42;22.30;99.90
20803;DHT22;10562;-33.856;151.182;2022-09-12T02:41:14;22.30;99.90
20803;DHT22;10562;-33.856;151.182;2022-09-12T02:43:47;21.80;99.90
20803;DHT22;10562;-33.856;151.182;2022-09-12T02:46:22;21.60;99.90
20803;DHT22;10562;-33.856;151.182;2022-09-12T02:48:55;21.50;99.90
20803;DHT22;10562;-33.856;151.182;2022-09-12T02:51:28;21.20;99.90
20803;DHT22;10562;-33.856;151.182;2022-09-12T02:54:00;21.50;99.90
20803;DHT22;10562;-33.856;151.182;2022-09-12T02:56:33;21.70;99.90
20803;DHT22;10562;-33.856;151.182;2022-09-12T02:59:06;21.90;99.90
20803;DHT22;10562;-33.856;151.182;2022-09-12T03:01:57;22.10;99.90
20803;DHT22;10562;-33.856;151.182;2022-09-12T03:04:50;22.30;99.90
20803;DHT22;10562;-33.856;151.182;2022-09-12T03:07:39;22.20;99.90
20803;DHT22;10562;-33.856;151.182;2022-09-12T03:10:21;21.90;99.90
20803;DHT22;10562;-33.856;151.182;2022-09-12T03:13:05;21.80;99.90
20803;DHT22;10562;-33.856;151.182;2022-09-12T03:15:45;21.70;99.90
20803;DHT22;10562;-33.856;151.182;2022-09-12T03:18:31;21.90;99.90
20803;DHT22;10562;-33.856;151.182;2022-09-12T03:21:08;21.80;99.90
20803;DHT22;10562;-33.856;151.182;2022-09-12T03:23:50;22.00;99.90
20803;DHT22;10562;-33.856;151.182;2022-09-12T03:26:28;22.10;99.90
20803;DHT22;10562;-33.856;151.182;2022-09-12T03:29:02;22.40;99.90
20803;DHT22;10562;-33.856;151.182;2022-09-12T03:31:34;22.20;99.90
20803;DHT22;10562;-33.856;151.182;2022-09-12T03:34:06;21.60;99.90
20803;DHT22;10562;-33.856;151.182;2022-09-12T03:36:39;21.90;99.90
20803;DHT22;10562;-33.856;151.182;2022-09-12T03:39:12;22.30;99.90
20803;DHT22;10562;-33.856;151.182;2022-09-12T03:41:46;22.80;99.90
20803;DHT22;10562;-33.856;151.182;2022-09-12T03:44:17;22.40;99.90
20803;DHT22;10562;-33.856;151.182;2022-09-12T03:46:47;22.90;99.90
20803;DHT22;10562;-33.856;151.182;2022-09-12T03:49:18;23.00;99.90
20803;DHT22;10562;-33.856;151.182;2022-09-12T03:51:49;23.30;99.90
20803;DHT22;10562;-33.856;151.182;2022-09-12T03:54:22;23.40;99.90
20803;DHT22;10562;-33.856;151.182;2022-09-12T03:56:53;23.70;99.90
20803;DHT22;10562;-33.856;151.182;2022-09-12T03:59:24;23.90;99.90
20803;DHT22;10562;-33.856;151.182;2022-09-12T04:01:54;23.30;99.90
20803;DHT22;10562;-33.856;151.182;2022-09-12T04:04:25;23.40;99.90
20803;DHT22;10562;-33.856;151.182;2022-09-12T04:06:56;23.20;99.90
20803;DHT22;10562;-33.856;151.182;2022-09-12T04:09:29;22.90;99.90
20803;DHT22;10562;-33.856;151.182;2022-09-12T04:12:00;22.80;99.90
20803;DHT22;10562;-33.856;151.182;2022-09-12T04:14:31;22.80;99.90
20803;DHT22;10562;-33.856;151.182;2022-09-12T04:17:02;22.60;99.90
20803;DHT22;10562;-33.856;151.182;2022-09-12T04:19:32;22.70;99.90
20803;DHT22;10562;-33.856;151.182;2022-09-12T04:22:03;22.60;99.90
20803;DHT22;10562;-33.856;151.182;2022-09-12T04:24:37;22.50;99.90
20803;DHT22;10562;-33.856;151.182;2022-09-12T04:27:08;22.10;99.90
20803;DHT22;10562;-33.856;151.182;2022-09-12T04:29:39;21.60;99.90
20803;DHT22;10562;-33.856;151.182;2022-09-12T04:32:10;21.20;99.90
20803;DHT22;10562;-33.856;151.182;2022-09-12T04:34:41;21.00;99.90
20803;DHT22;10562;-33.856;151.182;2022-09-12T04:37:13;21.00;99.90
20803;DHT22;10562;-33.856;151.182;2022-09-12T04:39:46;21.20;99.90
20803;DHT22;10562;-33.856;151.182;2022-09-12T04:42:19;21.00;99.90
20803;DHT22;10562;-33.856;151.182;2022-09-12T04:44:50;20.50;99.90
20803;DHT22;10562;-33.856;151.182;2022-09-12T04:47:21;20.20;99.90
20803;DHT22;10562;-33.856;151.182;2022-09-12T04:49:52;20.00;99.90
20803;DHT22;10562;-33.856;151.182;2022-09-12T04:52:25;19.80;99.90
20803;DHT22;10562;-33.856;151.182;2022-09-12T04:54:58;19.70;99.90
20803;DHT22;10562;-33.856;151.182;2022-09-12T04:57:29;19.80;99.90
20803;DHT22;10562;-33.856;151.182;2022-09-12T05:00:00;20.10;99.90
20803;DHT22;10562;-33.856;151.182;2022-09-12T05:02:33;20.30;99.90
20803;DHT22;10562;-33.856;151.182;2022-09-12T05:05:05;20.30;99.90
20803;DHT22;10562;-33.856;151.182;2022-09-12T05:07:36;20.40;99.90
20803;DHT22;10562;-33.856;151.182;2022-09-12T05:10:09;20.30;99.90
20803;DHT22;10562;-33.856;151.182;2022-09-12T05:12:41;20.20;99.90
20803;DHT22;10562;-33.856;151.182;2022-09-12T05:15:12;20.00;99.90
20803;DHT22;10562;-33.856;151.182;2022-09-12T05:17:43;19.90;99.90
20803;DHT22;10562;-33.856;151.182;2022-09-12T05:20:14;19.80;99.90
20803;DHT22;10562;-33.856;151.182;2022-09-12T05:22:44;19.40;99.90
20803;DHT22;10562;-33.856;151.182;2022-09-12T05:25:17;19.60;99.90
20803;DHT22;10562;-33.856;151.182;2022-09-12T05:27:51;19.60;99.90
20803;DHT22;10562;-33.856;151.182;2022-09-12T05:30:22;19.40;99.90
20803;DHT22;10562;-33.856;151.182;2022-09-12T05:32:53;19.30;99.90
20803;DHT22;10562;-33.856;151.182;2022-09-12T05:35:24;19.20;99.90
20803;DHT22;10562;-33.856;151.182;2022-09-12T05:37:54;19.10;99.90
20803;DHT22;10562;-33.856;151.182;2022-09-12T05:40:27;19.50;99.90
20803;DHT22;10562;-33.856;151.182;2022-09-12T05:42:58;20.00;99.90
20803;DHT22;10562;-33.856;151.182;2022-09-12T05:45:29;20.50;99.90
20803;DHT22;10562;-33.856;151.182;2022-09-12T05:48:00;20.90;99.90
20803;DHT22;10562;-33.856;151.182;2022-09-12T05:50:32;21.20;99.90
20803;DHT22;10562;-33.856;151.182;2022-09-12T05:53:03;21.60;99.90
20803;DHT22;10562;-33.856;151.182;2022-09-12T05:55:37;21.80;99.90
20803;DHT22;10562;-33.856;151.182;2022-09-12T05:58:08;21.70;99.90
20803;DHT22;10562;-33.856;151.182;2022-09-12T06:00:39;21.30;99.90
20803;DHT22;10562;-33.856;151.182;2022-09-12T06:03:10;20.80;99.90
20803;DHT22;10562;-33.856;151.182;2022-09-12T06:05:41;20.80;99.90
20803;DHT22;10562;-33.856;151.182;2022-09-12T06:08:12;21.10;99.90
20803;DHT22;10562;-33.856;151.182;2022-09-12T06:10:45;21.30;99.90
20803;DHT22;10562;-33.856;151.182;2022-09-12T06:13:16;20.90;99.90
20803;DHT22;10562;-33.856;151.182;2022-09-12T06:15:47;20.50;99.90
20803;DHT22;10562;-33.856;151.182;2022-09-12T06:18:18;19.90;99.90
20803;DHT22;10562;-33.856;151.182;2022-09-12T06:20:49;19.70;99.90
20803;DHT22;10562;-33.856;151.182;2022-09-12T06:23:20;19.50;99.90
20803;DHT22;10562;-33.856;151.182;2022-09-12T06:25:52;19.20;99.90
20803;DHT22;10562;-33.856;151.182;2022-09-12T06:28:23;19.10;99.90
20803;DHT22;10562;-33.856;151.182;2022-09-12T06:30:59;18.90;99.90
20803;DHT22;10562;-33.856;151.182;2022-09-12T06:33:32;18.70;99.90
20803;DHT22;10562;-33.856;151.182;2022-09-12T06:36:04;18.70;99.90
20803;DHT22;10562;-33.856;151.182;2022-09-12T06:38:35;18.70;99.90
20803;DHT22;10562;-33.856;151.182;2022-09-12T06:41:11;18.60;99.90
20803;DHT22;10562;-33.856;151.182;2022-09-12T06:43:43;18.50;99.90
20803;DHT22;10562;-33.856;151.182;2022-09-12T06:46:14;18.20;99.90
20803;DHT22;10562;-33.856;151.182;2022-09-12T06:48:45;18.10;99.90
20803;DHT22;10562;-33.856;151.182;2022-09-12T06:51:19;18.00;99.90
20803;DHT22;10562;-33.856;151.182;2022-09-12T06:53:50;18.00;99.90
20803;DHT22;10562;-33.856;151.182;2022-09-12T06:56:24;18.00;99.90
20803;DHT22;10562;-33.856;151.182;2022-09-12T06:58:56;17.90;99.90
20803;DHT22;10562;-33.856;151.182;2022-09-12T07:01:28;17.90;99.90
20803;DHT22;10562;-33.856;151.182;2022-09-12T07:04:00;17.90;99.90
20803;DHT22;10562;-33.856;151.182;2022-09-12T07:06:35;17.80;99.90
20803;DHT22;10562;-33.856;151.182;2022-09-12T07:09:09;17.80;99.90
20803;DHT22;10562;-33.856;151.182;2022-09-12T07:11:46;17.80;99.90
20803;DHT22;10562;-33.856;151.182;2022-09-12T07:14:17;17.80;99.90
20803;DHT22;10562;-33.856;151.182;2022-09-12T07:16:48;17.70;99.90
20803;DHT22;10562;-33.856;151.182;2022-09-12T07:19:19;17.70;99.90
20803;DHT22;10562;-33.856;151.182;2022-09-12T07:21:51;17.50;99.90
20803;DHT22;10562;-33.856;151.182;2022-09-12T07:24:22;17.40;99.90
20803;DHT22;10562;-33.856;151.182;2022-09-12T07:26:54;17.30;99.90
20803;DHT22;10562;-33.856;151.182;2022-09-12T07:29:25;17.10;99.90
20803;DHT22;10562;-33.856;151.182;2022-09-12T07:31:56;17.10;99.90
20803;DHT22;10562;-33.856;151.182;2022-09-12T07:34:28;17.00;99.90
20803;DHT22;10562;-33.856;151.182;2022-09-12T07:36:59;16.90;99.90
20803;DHT22;10562;-33.856;151.182;2022-09-12T07:39:29;16.80;99.90
20803;DHT22;10562;-33.856;151.182;2022-09-12T07:42:02;16.60;99.90
20803;DHT22;10562;-33.856;151.182;2022-09-12T07:44:33;16.50;99.90
20803;DHT22;10562;-33.856;151.182;2022-09-12T07:47:05;16.40;99.90
20803;DHT22;10562;-33.856;151.182;2022-09-12T07:49:36;16.30;99.90
20803;DHT22;10562;-33.856;151.182;2022-09-12T07:52:06;16.20;99.90
20803;DHT22;10562;-33.856;151.182;2022-09-12T07:54:37;16.20;99.90
20803;DHT22;10562;-33.856;151.182;2022-09-12T07:57:10;16.20;99.90
20803;DHT22;10562;-33.856;151.182;2022-09-12T07:59:42;16.20;99.90
20803;DHT22;10562;-33.856;151.182;2022-09-12T08:02:13;16.20;99.90
20803;DHT22;10562;-33.856;151.182;2022-09-12T08:04:45;16.30;99.90
20803;DHT22;10562;-33.856;151.182;2022-09-12T08:07:16;16.30;99.90
20803;DHT22;10562;-33.856;151.182;2022-09-12T08:09:47;16.30;99.90
20803;DHT22;10562;-33.856;151.182;2022-09-12T08:12:20;16.30;99.90
20803;DHT22;10562;-33.856;151.182;2022-09-12T08:14:51;16.30;99.90
20803;DHT22;10562;-33.856;151.182;2022-09-12T08:17:22;16.30;99.90
20803;DHT22;10562;-33.856;151.182;2022-09-12T08:19:53;16.20;99.90
20803;DHT22;10562;-33.856;151.182;2022-09-12T08:22:24;16.20;99.90
20803;DHT22;10562;-33.856;151.182;2022-09-12T08:24:55;16.20;99.90
20803;DHT22;10562;-33.856;151.182;2022-09-12T08:27:27;16.20;99.90
20803;DHT22;10562;-33.856;151.182;2022-09-12T08:29:58;16.10;99.90
20803;DHT22;10562;-33.856;151.182;2022-09-12T08:32:29;16.10;99.90
20803;DHT22;10562;-33.856;151.182;2022-09-12T08:35:00;16.00;99.90
20803;DHT22;10562;-33.856;151.182;2022-09-12T08:37:31;16.00;99.90
20803;DHT22;10562;-33.856;151.182;2022-09-12T08:40:03;16.00;99.90
20803;DHT22;10562;-33.856;151.182;2022-09-12T08:42:51;15.90;99.90
20803;DHT22;10562;-33.856;151.182;2022-09-12T08:45:28;15.90;99.90
20803;DHT22;10562;-33.856;151.182;2022-09-12T08:48:04;15.80;99.90
20803;DHT22;10562;-33.856;151.182;2022-09-12T08:50:36;15.70;99.90
20803;DHT22;10562;-33.856;151.182;2022-09-12T08:53:13;15.70;99.90
20803;DHT22;10562;-33.856;151.182;2022-09-12T08:55:49;15.50;99.90
20803;DHT22;10562;-33.856;151.182;2022-09-12T08:58:25;15.50;99.90
20803;DHT22;10562;-33.856;151.182;2022-09-12T09:01:00;15.50;99.90
20803;DHT22;10562;-33.856;151.182;2022-09-12T09:06:59;15.40;99.90
20803;DHT22;10562;-33.856;151.182;2022-09-12T09:09:43;15.10;99.90
20803;DHT22;10562;-33.856;151.182;2022-09-12T09:12:24;14.90;99.90
20803;DHT22;10562;-33.856;151.182;2022-09-12T09:15:13;14.70;99.90
20803;DHT22;10562;-33.856;151.182;2022-09-12T09:17:50;14.50;99.90
20803;DHT22;10562;-33.856;151.182;2022-09-12T09:20:28;14.30;99.90
20803;DHT22;10562;-33.856;151.182;2022-09-12T09:23:04;14.10;99.90
20803;DHT22;10562;-33.856;151.182;2022-09-12T09:25:49;14.00;99.90
20803;DHT22;10562;-33.856;151.182;2022-09-12T09:28:28;13.90;99.90
20803;DHT22;10562;-33.856;151.182;2022-09-12T09:31:02;13.70;99.90
20803;DHT22;10562;-33.856;151.182;2022-09-12T09:33:34;13.70;99.90
20803;DHT22;10562;-33.856;151.182;2022-09-12T09:36:13;13.70;99.90
20803;DHT22;10562;-33.856;151.182;2022-09-12T09:38:49;13.60;99.90
20803;DHT22;10562;-33.856;151.182;2022-09-12T09:41:43;13.50;99.90
20803;DHT22;10562;-33.856;151.182;2022-09-12T09:44:16;13.40;99.90
20803;DHT22;10562;-33.856;151.182;2022-09-12T09:46:51;13.40;99.90
20803;DHT22;10562;-33.856;151.182;2022-09-12T09:49:24;13.40;99.90
20803;DHT22;10562;-33.856;151.182;2022-09-12T09:51:57;13.30;99.90
20803;DHT22;10562;-33.856;151.182;2022-09-12T09:54:33;13.30;99.90
20803;DHT22;10562;-33.856;151.182;2022-09-12T09:57:38;13.20;99.90
20803;DHT22;10562;-33.856;151.182;2022-09-12T10:00:25;13.20;99.90
20803;DHT22;10562;-33.856;151.182;2022-09-12T10:03:05;13.30;99.90
20803;DHT22;10562;-33.856;151.182;2022-09-12T10:05:51;13.30;99.90
20803;DHT22;10562;-33.856;151.182;2022-09-12T10:08:25;13.20;99.90
20803;DHT22;10562;-33.856;151.182;2022-09-12T10:10:58;13.30;99.90
20803;DHT22;10562;-33.856;151.182;2022-09-12T10:13:37;13.50;99.90
20803;DHT22;10562;-33.856;151.182;2022-09-12T10:16:19;13.50;99.90
20803;DHT22;10562;-33.856;151.182;2022-09-12T10:18:53;13.70;99.90
20803;DHT22;10562;-33.856;151.182;2022-09-12T10:21:29;13.60;99.90
20803;DHT22;10562;-33.856;151.182;2022-09-12T10:24:09;13.50;99.90
20803;DHT22;10562;-33.856;151.182;2022-09-12T10:26:45;13.50;99.90
20803;DHT22;10562;-33.856;151.182;2022-09-12T10:29:21;13.50;99.90
20803;DHT22;10562;-33.856;151.182;2022-09-12T10:31:55;13.60;99.90
20803;DHT22;10562;-33.856;151.182;2022-09-12T10:34:32;13.50;99.90
20803;DHT22;10562;-33.856;151.182;2022-09-12T10:37:06;13.40;99.90
20803;DHT22;10562;-33.856;151.182;2022-09-12T10:39:38;13.30;99.90
20803;DHT22;10562;-33.856;151.182;2022-09-12T10:42:14;13.50;99.90
20803;DHT22;10562;-33.856;151.182;2022-09-12T10:44:53;13.50;99.90
20803;DHT22;10562;-33.856;151.182;2022-09-12T10:47:25;13.40;99.90
20803;DHT22;10562;-33.856;151.182;2022-09-12T10:50:23;13.40;99.90
20803;DHT22;10562;-33.856;151.182;2022-09-12T10:52:57;13.30;99.90
20803;DHT22;10562;-33.856;151.182;2022-09-12T10:55:54;13.20;99.90
20803;DHT22;10562;-33.856;151.182;2022-09-12T11:01:37;13.10;99.90
20803;DHT22;10562;-33.856;151.182;2022-09-12T11:04:39;13.00;99.90
20803;DHT22;10562;-33.856;151.182;2022-09-12T11:07:38;12.90;99.90
20803;DHT22;10562;-33.856;151.182;2022-09-12T11:10:31;12.80;99.90
20803;DHT22;10562;-33.856;151.182;2022-09-12T11:13:14;12.90;99.90
20803;DHT22;10562;-33.856;151.182;2022-09-12T11:15:58;12.80;99.90
20803;DHT22;10562;-33.856;151.182;2022-09-12T11:18:46;12.80;99.90
20803;DHT22;10562;-33.856;151.182;2022-09-12T11:21:30;12.80;99.90
20803;DHT22;10562;-33.856;151.182;2022-09-12T11:24:23;12.80;99.90
20803;DHT22;10562;-33.856;151.182;2022-09-12T11:27:09;12.80;99.90
20803;DHT22;10562;-33.856;151.182;2022-09-12T11:29:49;12.70;99.90
20803;DHT22;10562;-33.856;151.182;2022-09-12T11:32:52;12.80;99.90
20803;DHT22;10562;-33.856;151.182;2022-09-12T11:35:28;12.80;99.90
20803;DHT22;10562;-33.856;151.182;2022-09-12T11:40:53;12.90;99.90
20803;DHT22;10562;-33.856;151.182;2022-09-12T11:43:28;12.90;99.90
20803;DHT22;10562;-33.856;151.182;2022-09-12T11:46:08;13.00;99.90
20803;DHT22;10562;-33.856;151.182;2022-09-12T11:48:45;13.10;99.90
20803;DHT22;10562;-33.856;151.182;2022-09-12T11:51:18;13.10;99.90
20803;DHT22;10562;-33.856;151.182;2022-09-12T11:53:59;13.20;99.90
20803;DHT22;10562;-33.856;151.182;2022-09-12T11:56:35;13.20;99.90
20803;DHT22;10562;-33.856;151.182;2022-09-12T11:59:14;13.30;99.90
20803;DHT22;10562;-33.856;151.182;2022-09-12T12:01:49;13.40;99.90
20803;DHT22;10562;-33.856;151.182;2022-09-12T12:04:26;13.60;99.90
20803;DHT22;10562;-33.856;151.182;2022-09-12T12:07:04;13.70;99.90
20803;DHT22;10562;-33.856;151.182;2022-09-12T12:09:35;13.60;99.90
20803;DHT22;10562;-33.856;151.182;2022-09-12T12:12:10;13.70;99.90
20803;DHT22;10562;-33.856;151.182;2022-09-12T12:14:46;13.60;99.90
20803;DHT22;10562;-33.856;151.182;2022-09-12T12:17:19;13.60;99.90
20803;DHT22;10562;-33.856;151.182;2022-09-12T12:19:58;13.60;99.90
20803;DHT22;10562;-33.856;151.182;2022-09-12T12:22:30;13.50;99.90
20803;DHT22;10562;-33.856;151.182;2022-09-12T12:25:22;13.50;99.90
20803;DHT22;10562;-33.856;151.182;2022-09-12T12:27:57;13.30;99.90
20803;DHT22;10562;-33.856;151.182;2022-09-12T12:30:58;13.30;99.90
20803;DHT22;10562;-33.856;151.182;2022-09-12T12:34:00;13.20;99.90
20803;DHT22;10562;-33.856;151.182;2022-09-12T12:36:41;13.10;99.90
20803;DHT22;10562;-33.856;151.182;2022-09-12T12:48:46;12.80;99.90
20803;DHT22;10562;-33.856;151.182;2022-09-12T12:51:31;12.80;99.90
20803;DHT22;10562;-33.856;151.182;2022-09-12T12:54:03;12.70;99.90
20803;DHT22;10562;-33.856;151.182;2022-09-12T12:56:38;12.70;99.90
20803;DHT22;10562;-33.856;151.182;2022-09-12T12:59:18;12.60;99.90
20803;DHT22;10562;-33.856;151.182;2022-09-12T13:01:51;12.60;99.90
20803;DHT22;10562;-33.856;151.182;2022-09-12T13:04:28;12.60;99.90
20803;DHT22;10562;-33.856;151.182;2022-09-12T13:07:03;12.70;99.90
20803;DHT22;10562;-33.856;151.182;2022-09-12T13:09:37;12.60;99.90
20803;DHT22;10562;-33.856;151.182;2022-09-12T13:12:10;12.50;99.90
20803;DHT22;10562;-33.856;151.182;2022-09-12T13:14:50;12.50;99.90
20803;DHT22;10562;-33.856;151.182;2022-09-12T13:17:39;12.50;99.90
20803;DHT22;10562;-33.856;151.182;2022-09-12T13:20:19;12.50;99.90
20803;DHT22;10562;-33.856;151.182;2022-09-12T13:22:53;12.50;99.90
20803;DHT22;10562;-33.856;151.182;2022-09-12T13:25:30;12.40;99.90
20803;DHT22;10562;-33.856;151.182;2022-09-12T13:28:04;12.40;99.90
20803;DHT22;10562;-33.856;151.182;2022-09-12T13:30:37;12.30;99.90
20803;DHT22;10562;-33.856;151.182;2022-09-12T13:33:19;12.30;99.90
20803;DHT22;10562;-33.856;151.182;2022-09-12T13:36:14;12.20;99.90
20803;DHT22;10562;-33.856;151.182;2022-09-12T13:38:58;12.20;99.90
20803;DHT22;10562;-33.856;151.182;2022-09-12T13:44:35;12.30;99.90
20803;DHT22;10562;-33.856;151.182;2022-09-12T13:47:10;12.30;99.90
20803;DHT22;10562;-33.856;151.182;2022-09-12T13:49:43;12.30;99.90
20803;DHT22;10562;-33.856;151.182;2022-09-12T13:52:19;12.40;99.90
20803;DHT22;10562;-33.856;151.182;2022-09-12T13:54:53;12.40;99.90
20803;DHT22;10562;-33.856;151.182;2022-09-12T13:57:33;12.50;99.90
20803;DHT22;10562;-33.856;151.182;2022-09-12T14:00:09;12.60;99.90
20803;DHT22;10562;-33.856;151.182;2022-09-12T14:02:43;12.70;99.90
20803;DHT22;10562;-33.856;151.182;2022-09-12T14:05:19;12.90;99.90
20803;DHT22;10562;-33.856;151.182;2022-09-12T14:07:56;13.00;99.90
20803;DHT22;10562;-33.856;151.182;2022-09-12T14:10:29;13.00;99.90
20803;DHT22;10562;-33.856;151.182;2022-09-12T14:13:03;13.10;99.90
20803;DHT22;10562;-33.856;151.182;2022-09-12T14:15:36;13.20;99.90
20803;DHT22;10562;-33.856;151.182;2022-09-12T14:18:18;13.20;99.90
20803;DHT22;10562;-33.856;151.182;2022-09-12T14:20:51;13.20;99.90
20803;DHT22;10562;-33.856;151.182;2022-09-12T14:23:28;13.20;99.90
20803;DHT22;10562;-33.856;151.182;2022-09-12T14:26:02;13.20;99.90
20803;DHT22;10562;-33.856;151.182;2022-09-12T14:28:36;13.20;99.90
20803;DHT22;10562;-33.856;151.182;2022-09-12T14:31:21;13.20;99.90
20803;DHT22;10562;-33.856;151.182;2022-09-12T14:33:54;13.10;99.90
20803;DHT22;10562;-33.856;151.182;2022-09-12T14:36:26;13.00;99.90
20803;DHT22;10562;-33.856;151.182;2022-09-12T14:39:02;13.00;99.90
20803;DHT22;10562;-33.856;151.182;2022-09-12T14:41:35;12.80;99.90
20803;DHT22;10562;-33.856;151.182;2022-09-12T14:44:09;12.70;99.90
20803;DHT22;10562;-33.856;151.182;2022-09-12T14:46:44;12.60;99.90
20803;DHT22;10562;-33.856;151.182;2022-09-12T14:49:18;12.50;99.90
20803;DHT22;10562;-33.856;151.182;2022-09-12T14:51:55;12.40;99.90
20803;DHT22;10562;-33.856;151.182;2022-09-12T14:54:39;12.30;99.90
20803;DHT22;10562;-33.856;151.182;2022-09-12T14:57:32;12.10;99.90
20803;DHT22;10562;-33.856;151.182;2022-09-12T15:00:20;12.00;99.90
20803;DHT22;10562;-33.856;151.182;2022-09-12T15:02:52;12.00;99.90
20803;DHT22;10562;-33.856;151.182;2022-09-12T15:05:27;12.00;99.90
20803;DHT22;10562;-33.856;151.182;2022-09-12T15:07:59;12.00;99.90
20803;DHT22;10562;-33.856;151.182;2022-09-12T15:10:35;12.00;99.90
20803;DHT22;10562;-33.856;151.182;2022-09-12T15:13:12;12.00;99.90
20803;DHT22;10562;-33.856;151.182;2022-09-12T15:15:44;12.00;99.90
20803;DHT22;10562;-33.856;151.182;2022-09-12T15:18:16;12.00;99.90
20803;DHT22;10562;-33.856;151.182;2022-09-12T15:20:48;12.00;99.90
20803;DHT22;10562;-33.856;151.182;2022-09-12T15:23:25;12.00;99.90
20803;DHT22;10562;-33.856;151.182;2022-09-12T15:25:59;12.00;99.90
20803;DHT22;10562;-33.856;151.182;2022-09-12T15:28:30;11.90;99.90
20803;DHT22;10562;-33.856;151.182;2022-09-12T15:31:06;11.80;99.90
20803;DHT22;10562;-33.856;151.182;2022-09-12T15:33:37;11.80;99.90
20803;DHT22;10562;-33.856;151.182;2022-09-12T15:36:14;11.80;99.90
20803;DHT22;10562;-33.856;151.182;2022-09-12T15:38:46;11.80;99.90
20803;DHT22;10562;-33.856;151.182;2022-09-12T15:41:21;11.80;99.90
20803;DHT22;10562;-33.856;151.182;2022-09-12T15:43:52;11.90;99.90
20803;DHT22;10562;-33.856;151.182;2022-09-12T15:46:23;11.90;99.90
20803;DHT22;10562;-33.856;151.182;2022-09-12T15:48:54;11.90;99.90
20803;DHT22;10562;-33.856;151.182;2022-09-12T15:51:25;11.90;99.90
20803;DHT22;10562;-33.856;151.182;2022-09-12T15:53:56;12.00;99.90
20803;DHT22;10562;-33.856;151.182;2022-09-12T15:56:28;12.00;99.90
20803;DHT22;10562;-33.856;151.182;2022-09-12T15:58:59;12.00;99.90
20803;DHT22;10562;-33.856;151.182;2022-09-12T16:01:30;12.00;99.90
20803;DHT22;10562;-33.856;151.182;2022-09-12T16:04:02;12.00;99.90
20803;DHT22;10562;-33.856;151.182;2022-09-12T16:06:33;12.00;99.90
20803;DHT22;10562;-33.856;151.182;2022-09-12T16:09:04;12.10;99.90
20803;DHT22;10562;-33.856;151.182;2022-09-12T16:11:36;12.10;99.90
20803;DHT22;10562;-33.856;151.182;2022-09-12T16:14:09;12.20;99.90